Portada
METAR-TAF:

METAR-TAF

Aeroports :

Simla, Índia

latitud: 31-04-54N, longitud: 77-04-05E, altitud: 1546 m

METAR: manca

Hora: 12:49 (07:19 UTC)

Pronòstic

L'informe es va fer fa 2 hores i 19 minuts, a les 05:00 UTC
Pronòstic vàlid del 30 a les 06 UTC al 30 a les 15 UTC
Vent 5 kt del Oest
Visibilitat: 6000 m
Escasses núvols a una alçada de 3000 ft
Evolucionant progressivament
l' 30 a les 12 UTC al 30 a les 14 UTC
Vent 5 kt del Sud-Est
Visibilitat: 1500 m
Escasses núvols a una alçada de 3000 ft
Núvols disperses a una alçada de 10000 ft
Escasses núvols a una alçada de 3500 ft, Cumulonimbus.
Cel cobert a una alçada de 8000 ft
calitja, tempesta, pluja

TAF: VISM 300500Z 3006/3015 27005KT 6000 FEW030 BECMG 3012/3014 14005KT 3000 HZ FEW030 SCT100 3009/3012 1500 -TSRA FEW035CB OVC080

Observacions i pronòstics meteorològics de més de 4000 aeroports (METAR i TAF).

Les estacions disponibles són els punts grocs i vermells al mapa.

Posi el ratolí al punt desitjat per veure el nom de l'estació.

Feu clic per veure les observacions i els pronòstics meteorològics.

Per canviar el mapa: feu clic els botons verds amb una creu de color negre per apropar; al botó verd amb un guió per allunyar la imatge; o en les fletxes verdes per a mapes adjacents.


METAR-TAF: